createdAt,value
2022-10-12T00:00:01.413Z,4.74
2022-10-12T00:02:28.661Z,4.64
2022-10-12T00:04:55.856Z,4.67
2022-10-12T00:07:23.202Z,4.68
2022-10-12T00:09:50.626Z,4.65
2022-10-12T00:12:17.909Z,4.56
2022-10-12T00:14:45.344Z,4.59
2022-10-12T00:17:12.677Z,4.55
2022-10-12T00:19:40.539Z,4.49
2022-10-12T00:22:07.857Z,4.47
2022-10-12T00:24:37.465Z,4.52
2022-10-12T00:27:07.755Z,4.53
2022-10-12T00:29:35.087Z,4.45
2022-10-12T00:32:02.328Z,4.55
2022-10-12T00:34:29.547Z,4.52
2022-10-12T00:36:57.123Z,4.48
2022-10-12T00:39:24.324Z,4.39
2022-10-12T00:41:51.523Z,4.37
2022-10-12T00:44:41.439Z,4.38
2022-10-12T00:47:37.504Z,4.35
2022-10-12T00:50:04.811Z,4.32
2022-10-12T00:53:06.775Z,4.35
2022-10-12T00:55:39.865Z,4.32
2022-10-12T00:58:08.941Z,4.29
2022-10-12T01:00:37.908Z,4.28
2022-10-12T01:03:08.340Z,4.17
2022-10-12T01:05:37.055Z,4.12
2022-10-12T01:08:04.300Z,4.10
2022-10-12T01:10:31.545Z,4.12
2022-10-12T01:12:59.824Z,4.12
2022-10-12T01:15:37.128Z,4.07
2022-10-12T01:18:24.222Z,4.15
2022-10-12T01:21:19.568Z,4.17
2022-10-12T01:24:13.241Z,4.21
2022-10-12T01:27:15.583Z,4.14
2022-10-12T01:30:14.950Z,4.11
2022-10-12T01:33:06.101Z,4.04
2022-10-12T01:36:05.627Z,4.04
2022-10-12T01:38:57.849Z,4.06
2022-10-12T01:41:42.408Z,4.03
2022-10-12T01:44:09.571Z,4.12
2022-10-12T01:46:41.577Z,4.19
2022-10-12T01:49:09.843Z,4.20
2022-10-12T01:51:56.757Z,4.13
2022-10-12T01:54:48.706Z,4.23
2022-10-12T01:58:01.994Z,4.12
2022-10-12T02:00:34.301Z,4.02
2022-10-12T02:03:14.289Z,4.12
2022-10-12T02:06:08.307Z,4.06
2022-10-12T02:08:48.568Z,4.00
2022-10-12T02:11:22.943Z,3.99
2022-10-12T02:14:06.684Z,3.97
2022-10-12T02:16:43.834Z,3.90
2022-10-12T02:19:16.354Z,3.80
2022-10-12T02:21:47.409Z,3.77
2022-10-12T02:24:17.612Z,3.76
2022-10-12T02:26:48.710Z,3.74
2022-10-12T02:29:23.364Z,3.86
2022-10-12T02:32:02.636Z,3.86
2022-10-12T02:34:51.189Z,3.81
2022-10-12T02:37:45.004Z,3.76
2022-10-12T02:40:43.860Z,3.80
2022-10-12T02:43:29.645Z,3.87
2022-10-12T02:45:59.229Z,3.87
2022-10-12T02:48:28.676Z,3.86
2022-10-12T02:50:58.539Z,3.72
2022-10-12T02:53:27.954Z,3.71
2022-10-12T02:56:05.754Z,3.67
2022-10-12T02:58:33.127Z,3.84
2022-10-12T03:01:00.391Z,3.91
2022-10-12T03:03:29.715Z,3.94
2022-10-12T03:05:58.673Z,3.96
2022-10-12T03:08:25.992Z,3.97
2022-10-12T03:10:53.281Z,3.95
2022-10-12T03:13:20.506Z,3.92
2022-10-12T03:15:47.798Z,3.86
2022-10-12T03:18:15.068Z,3.86
2022-10-12T03:20:42.436Z,3.91
2022-10-12T03:23:09.669Z,3.99
2022-10-12T03:25:36.838Z,3.95
2022-10-12T03:28:04.941Z,3.85
2022-10-12T03:30:32.103Z,3.76
2022-10-12T03:32:59.321Z,3.81
2022-10-12T03:35:26.618Z,3.76
2022-10-12T03:37:53.804Z,3.74
2022-10-12T03:40:21.004Z,3.64
2022-10-12T03:42:48.257Z,3.59
2022-10-12T03:45:15.514Z,3.58
2022-10-12T03:47:42.803Z,3.53
2022-10-12T03:50:10.609Z,3.42
2022-10-12T03:52:37.901Z,3.27
2022-10-12T03:55:05.738Z,3.16
2022-10-12T03:57:33.112Z,3.15
2022-10-12T04:00:00.303Z,3.15
2022-10-12T04:02:27.580Z,3.16
2022-10-12T04:04:54.841Z,3.04
2022-10-12T04:07:22.155Z,3.07
2022-10-12T04:09:49.401Z,3.15
2022-10-12T04:12:16.709Z,3.02
2022-10-12T04:14:44.034Z,3.02
2022-10-12T04:17:11.953Z,3.10
2022-10-12T04:19:39.132Z,3.17
2022-10-12T04:22:06.318Z,3.18
2022-10-12T04:24:33.604Z,3.16
2022-10-12T04:27:00.830Z,3.13
2022-10-12T04:29:28.074Z,3.14
2022-10-12T04:31:55.327Z,3.17
2022-10-12T04:34:22.526Z,3.12
2022-10-12T04:36:50.637Z,3.11
2022-10-12T04:39:17.872Z,3.19
2022-10-12T04:41:45.230Z,3.25
2022-10-12T04:44:12.540Z,3.25
2022-10-12T04:46:39.806Z,3.30
2022-10-12T04:49:07.224Z,3.32
2022-10-12T04:51:34.629Z,3.33
2022-10-12T04:54:02.104Z,3.31
2022-10-12T04:56:29.437Z,3.30
2022-10-12T04:58:56.834Z,3.26
2022-10-12T05:01:24.264Z,3.31
2022-10-12T05:03:51.518Z,3.34
2022-10-12T05:06:18.794Z,3.38
2022-10-12T05:08:46.084Z,3.34
2022-10-12T05:11:13.852Z,3.38
2022-10-12T05:13:41.043Z,3.46
2022-10-12T05:16:08.302Z,3.59
2022-10-12T05:18:35.588Z,3.78
2022-10-12T05:21:02.816Z,3.87
2022-10-12T05:23:30.252Z,3.89
2022-10-12T05:25:57.517Z,3.86
2022-10-12T05:28:25.253Z,3.90
2022-10-12T05:30:53.461Z,4.05
2022-10-12T05:33:21.103Z,4.30
2022-10-12T05:35:53.369Z,4.54
2022-10-12T05:38:23.624Z,4.80
2022-10-12T05:40:50.862Z,5.08
2022-10-12T05:43:18.234Z,5.43
2022-10-12T05:45:45.435Z,5.74
2022-10-12T05:48:12.680Z,5.97
2022-10-12T05:50:40.023Z,6.24
2022-10-12T05:53:07.192Z,6.50
2022-10-12T05:55:34.616Z,6.64
2022-10-12T05:58:01.918Z,6.62
2022-10-12T06:00:29.178Z,6.77
2022-10-12T06:02:56.583Z,7.02
2022-10-12T06:05:24.195Z,7.09
2022-10-12T06:07:51.367Z,7.61
2022-10-12T06:10:18.597Z,7.84
2022-10-12T06:12:45.777Z,7.73
2022-10-12T06:15:13.015Z,8.22
2022-10-12T06:17:40.330Z,9.18
2022-10-12T06:20:08.375Z,9.77
2022-10-12T06:22:35.695Z,10.05
2022-10-12T06:25:03.277Z,10.64
2022-10-12T06:27:30.587Z,10.13
2022-10-12T06:29:58.142Z,9.47
2022-10-12T06:32:25.395Z,10.13
2022-10-12T06:34:52.664Z,10.08
2022-10-12T06:37:44.433Z,10.19
2022-10-12T06:40:07.960Z,9.63
2022-10-12T06:42:35.378Z,9.24
2022-10-12T06:45:02.809Z,9.03
2022-10-12T06:47:30.033Z,9.02
2022-10-12T06:49:57.203Z,9.25
2022-10-12T06:52:24.403Z,9.25
2022-10-12T06:54:51.677Z,9.23
2022-10-12T06:57:18.899Z,9.40
2022-10-12T06:59:46.135Z,9.46
2022-10-12T07:02:13.333Z,9.41
2022-10-12T07:04:40.592Z,9.11
2022-10-12T07:07:07.870Z,8.61
2022-10-12T07:09:35.192Z,9.08
2022-10-12T07:12:02.515Z,9.45
2022-10-12T07:14:29.733Z,10.11
2022-10-12T07:16:56.984Z,10.78
2022-10-12T07:19:24.257Z,11.51
2022-10-12T07:21:51.577Z,12.92
2022-10-12T07:24:18.803Z,13.62
2022-10-12T07:26:46.050Z,13.89
2022-10-12T07:29:13.294Z,15.46
2022-10-12T07:31:42.337Z,16.43
2022-10-12T07:34:09.556Z,16.63
2022-10-12T07:36:58.049Z,17.57
2022-10-12T07:39:24.735Z,17.38
2022-10-12T07:41:52.938Z,19.29
2022-10-12T07:44:21.196Z,19.61
2022-10-12T07:46:48.637Z,19.70
2022-10-12T07:49:16.928Z,20.05
2022-10-12T07:51:46.404Z,20.19
2022-10-12T07:54:19.823Z,21.34
2022-10-12T07:56:47.274Z,22.30
2022-10-12T07:59:15.210Z,22.53
2022-10-12T08:01:42.572Z,22.31
2022-10-12T08:04:10.534Z,22.09
2022-10-12T08:06:37.987Z,22.71
2022-10-12T08:09:05.302Z,21.49
2022-10-12T08:11:37.412Z,22.87
2022-10-12T08:14:04.755Z,22.71
2022-10-12T08:16:32.074Z,23.06
2022-10-12T08:19:01.105Z,23.59
2022-10-12T08:21:28.401Z,23.90
2022-10-12T08:23:55.640Z,23.08
2022-10-12T08:26:22.865Z,23.71
2022-10-12T08:28:50.277Z,24.37
2022-10-12T08:31:18.014Z,25.33
2022-10-12T08:33:45.499Z,25.30
2022-10-12T08:36:13.753Z,24.93
2022-10-12T08:38:43.331Z,24.40
2022-10-12T08:41:54.642Z,25.72
2022-10-12T08:44:52.120Z,26.85
2022-10-12T08:47:54.029Z,27.50
2022-10-12T08:50:32.416Z,26.95
2022-10-12T08:53:19.483Z,25.64
2022-10-12T08:55:47.340Z,24.74
2022-10-12T08:58:20.846Z,24.56
2022-10-12T09:00:53.849Z,26.00
2022-10-12T09:03:55.061Z,25.42
2022-10-12T09:06:28.823Z,25.18
2022-10-12T09:09:52.943Z,25.01
2022-10-12T09:12:53.579Z,26.43
2022-10-12T09:15:29.767Z,26.07
2022-10-12T09:17:59.902Z,26.29
2022-10-12T09:20:47.219Z,27.04
2022-10-12T09:23:47.957Z,28.00
2022-10-12T09:26:26.141Z,29.87
2022-10-12T09:28:58.416Z,29.46
2022-10-12T09:32:02.387Z,31.31
2022-10-12T09:34:29.672Z,32.60
2022-10-12T09:36:57.751Z,32.64
2022-10-12T09:39:33.889Z,32.37
2022-10-12T09:42:01.683Z,32.05
2022-10-12T09:44:44.946Z,31.15
2022-10-12T09:47:32.144Z,30.75
2022-10-12T09:50:02.478Z,29.32
2022-10-12T09:52:35.729Z,28.58
2022-10-12T09:58:02.870Z,27.10
2022-10-12T10:00:34.638Z,24.19
2022-10-12T10:03:03.430Z,26.03
2022-10-12T10:05:36.233Z,27.41
2022-10-12T10:08:23.506Z,28.16
2022-10-12T10:10:57.441Z,26.78
2022-10-12T10:13:31.837Z,26.75
2022-10-12T10:16:10.962Z,27.72
2022-10-12T10:18:44.205Z,27.74
2022-10-12T10:21:14.727Z,26.47
2022-10-12T10:24:36.773Z,25.63
2022-10-12T10:27:07.107Z,26.71
2022-10-12T10:29:41.864Z,26.64
2022-10-12T10:32:28.945Z,27.47
2022-10-12T10:35:18.697Z,28.29
2022-10-12T10:37:55.248Z,27.04
2022-10-12T10:40:30.508Z,27.78
2022-10-12T10:43:16.155Z,28.20
2022-10-12T10:45:50.757Z,28.78
2022-10-12T10:48:23.516Z,28.87
2022-10-12T10:51:07.071Z,29.46
2022-10-12T10:53:47.469Z,30.94
2022-10-12T10:56:31.400Z,30.66
2022-10-12T10:59:14.966Z,30.71
2022-10-12T11:02:00.069Z,29.27
2022-10-12T11:04:39.833Z,31.00
2022-10-12T11:07:31.939Z,29.90
2022-10-12T11:10:15.024Z,29.88
2022-10-12T11:12:49.773Z,29.81
2022-10-12T11:15:37.673Z,29.45
2022-10-12T11:18:45.084Z,28.47
2022-10-12T11:21:41.515Z,28.83
2022-10-12T11:24:24.236Z,28.70
2022-10-12T11:27:10.724Z,28.07
2022-10-12T11:29:38.883Z,27.34
2022-10-12T11:32:33.639Z,27.30
2022-10-12T11:35:06.898Z,26.30
2022-10-12T11:37:53.083Z,27.37
2022-10-12T11:41:30.938Z,27.86
2022-10-12T11:43:57.116Z,27.33
2022-10-12T11:46:58.670Z,25.97
2022-10-12T11:49:58.704Z,24.32
2022-10-12T11:52:36.278Z,25.32
2022-10-12T11:55:55.394Z,25.25
2022-10-12T11:58:48.778Z,25.03
2022-10-12T12:01:56.051Z,24.76
2022-10-12T12:04:42.231Z,24.73
2022-10-12T12:07:53.882Z,24.20
2022-10-12T12:10:35.381Z,24.14
2022-10-12T12:13:14.883Z,22.75
2022-10-12T12:15:52.272Z,23.07
2022-10-12T12:18:28.271Z,23.41
2022-10-12T12:21:10.249Z,23.80
2022-10-12T12:23:43.641Z,23.40
2022-10-12T12:26:15.846Z,24.37
2022-10-12T12:28:49.169Z,23.69
2022-10-12T12:31:22.181Z,23.42
2022-10-12T12:34:11.688Z,22.16
2022-10-12T12:36:44.868Z,21.54
2022-10-12T12:39:27.052Z,21.53
2022-10-12T12:42:04.542Z,21.38
2022-10-12T12:44:36.220Z,20.64
2022-10-12T12:47:08.493Z,20.46
2022-10-12T12:49:56.272Z,20.44
2022-10-12T12:52:30.388Z,20.33
2022-10-12T12:55:40.530Z,20.01
2022-10-12T12:58:34.948Z,20.00
2022-10-12T13:01:48.393Z,19.09
2022-10-12T13:04:40.501Z,18.86
2022-10-12T13:07:47.167Z,19.20
2022-10-12T13:11:28.321Z,18.84
2022-10-12T13:14:14.293Z,18.79
2022-10-12T13:17:31.306Z,18.48
2022-10-12T13:19:38.553Z,17.76
2022-10-12T13:22:26.205Z,17.71
2022-10-12T13:25:08.275Z,17.43
2022-10-12T13:27:48.748Z,17.28
2022-10-12T13:30:41.940Z,16.98
2022-10-12T13:33:37.195Z,16.79
2022-10-12T13:36:28.252Z,16.54
2022-10-12T13:39:07.540Z,16.27
2022-10-12T13:41:36.192Z,16.33
2022-10-12T13:44:08.205Z,16.16
2022-10-12T13:46:47.482Z,15.75
2022-10-12T13:49:16.582Z,15.51
2022-10-12T13:51:48.486Z,15.48
2022-10-12T13:54:34.475Z,15.31
2022-10-12T13:57:29.227Z,15.41
2022-10-12T14:00:20.393Z,15.13
2022-10-12T14:03:01.045Z,15.18
2022-10-12T14:05:32.335Z,15.18
2022-10-12T14:08:15.585Z,15.10
2022-10-12T14:10:44.699Z,15.01
2022-10-12T14:13:22.666Z,14.89
2022-10-12T14:15:50.144Z,14.66
2022-10-12T14:18:45.261Z,14.66
2022-10-12T14:21:23.473Z,14.51
2022-10-12T14:23:54.725Z,14.48
2022-10-12T14:26:31.547Z,14.48
2022-10-12T14:29:00.673Z,14.36
2022-10-12T14:32:06.955Z,14.35
2022-10-12T14:34:49.744Z,14.24
2022-10-12T14:37:29.816Z,14.09
2022-10-12T14:40:00.953Z,13.86
2022-10-12T14:42:36.241Z,13.80
2022-10-12T14:45:06.804Z,13.72
2022-10-12T14:47:42.909Z,13.63
2022-10-12T14:50:19.079Z,13.58
2022-10-12T14:52:56.330Z,13.49
2022-10-12T14:55:27.608Z,13.33
2022-10-12T14:57:55.117Z,13.25
2022-10-12T15:00:32.938Z,13.12
2022-10-12T15:03:01.570Z,13.00
2022-10-12T15:05:33.974Z,12.79
2022-10-12T15:08:07.514Z,12.69
2022-10-12T15:10:36.160Z,12.56
2022-10-12T15:13:04.010Z,12.41
2022-10-12T15:15:48.685Z,12.30
2022-10-12T15:18:15.975Z,12.20
2022-10-12T15:20:48.254Z,12.07
2022-10-12T15:23:16.771Z,12.00
2022-10-12T15:26:04.493Z,11.90
2022-10-12T15:28:32.173Z,11.83
2022-10-12T15:31:19.721Z,11.73
2022-10-12T15:33:47.213Z,11.59
2022-10-12T15:36:14.478Z,11.50
2022-10-12T15:38:41.587Z,11.37
2022-10-12T15:41:20.959Z,11.22
2022-10-12T15:43:48.283Z,11.11
2022-10-12T15:46:15.537Z,10.98
2022-10-12T15:48:44.073Z,10.78
2022-10-12T15:51:20.824Z,10.59
2022-10-12T15:53:48.480Z,10.39
2022-10-12T15:56:17.418Z,10.30
2022-10-12T15:58:45.548Z,10.25
2022-10-12T16:01:19.463Z,10.09
2022-10-12T16:03:47.690Z,9.97
2022-10-12T16:06:15.023Z,9.92
2022-10-12T16:08:42.614Z,9.87
2022-10-12T16:11:14.710Z,9.78
2022-10-12T16:13:49.801Z,9.62
2022-10-12T16:16:19.191Z,9.50
2022-10-12T16:18:46.510Z,9.38
2022-10-12T16:21:13.881Z,9.27
2022-10-12T16:23:41.775Z,9.25
2022-10-12T16:26:14.461Z,9.18
2022-10-12T16:28:42.321Z,9.10
2022-10-12T16:31:16.012Z,9.01
2022-10-12T16:33:43.746Z,8.89
2022-10-12T16:36:15.031Z,8.75
2022-10-12T16:38:43.745Z,8.64
2022-10-12T16:41:14.892Z,8.58
2022-10-12T16:43:43.936Z,8.53
2022-10-12T16:46:11.325Z,8.40
2022-10-12T16:48:38.931Z,8.37
2022-10-12T16:51:11.271Z,8.29
2022-10-12T16:53:39.127Z,8.20
2022-10-12T16:56:06.680Z,8.14
2022-10-12T16:58:33.951Z,8.03
2022-10-12T17:01:14.160Z,7.95
2022-10-12T17:03:41.859Z,7.88
2022-10-12T17:06:09.896Z,8.04
2022-10-12T17:08:39.535Z,7.99
2022-10-12T17:11:13.694Z,7.78
2022-10-12T17:13:48.055Z,7.61
2022-10-12T17:16:36.185Z,7.44
2022-10-12T17:19:04.047Z,7.39
2022-10-12T17:21:31.569Z,7.35
2022-10-12T17:24:00.353Z,7.29
2022-10-12T17:26:28.332Z,7.21
2022-10-12T17:28:55.738Z,7.20
2022-10-12T17:31:23.206Z,7.17
2022-10-12T17:33:50.448Z,7.15
2022-10-12T17:36:18.028Z,7.13
2022-10-12T17:38:48.360Z,7.08
2022-10-12T17:41:15.847Z,7.12
2022-10-12T17:43:43.155Z,7.02
2022-10-12T17:46:10.476Z,7.02
2022-10-12T17:48:37.837Z,6.99
2022-10-12T17:51:12.811Z,6.95
2022-10-12T17:53:40.918Z,6.89
2022-10-12T17:56:12.002Z,6.84
2022-10-12T17:58:39.620Z,7.04
2022-10-12T18:01:15.721Z,7.00
2022-10-12T18:03:46.307Z,6.88
2022-10-12T18:06:17.709Z,6.93
2022-10-12T18:08:45.361Z,6.89
2022-10-12T18:11:14.249Z,6.92
2022-10-12T18:13:47.857Z,6.87
2022-10-12T18:16:18.463Z,6.85
2022-10-12T18:18:46.107Z,6.76
2022-10-12T18:21:14.127Z,6.70
2022-10-12T18:23:41.498Z,6.66
2022-10-12T18:26:11.827Z,6.67
2022-10-12T18:28:40.432Z,6.54
2022-10-12T18:31:07.976Z,6.50
2022-10-12T18:33:35.291Z,6.49
2022-10-12T18:36:07.427Z,6.54
2022-10-12T18:38:34.897Z,6.55
2022-10-12T18:41:11.216Z,6.56
2022-10-12T18:43:39.002Z,6.54
2022-10-12T18:46:13.527Z,6.67
2022-10-12T18:48:41.612Z,6.49
2022-10-12T18:51:31.560Z,6.40
2022-10-12T18:54:00.912Z,6.40
2022-10-12T18:56:29.878Z,6.42
2022-10-12T18:58:59.905Z,6.37
2022-10-12T19:01:30.041Z,6.37
2022-10-12T19:03:59.991Z,6.26
2022-10-12T19:06:36.191Z,6.16
2022-10-12T19:09:05.310Z,6.02
2022-10-12T19:11:34.674Z,6.00
2022-10-12T19:14:06.830Z,6.11
2022-10-12T19:16:35.544Z,6.16
2022-10-12T19:19:07.832Z,6.10
2022-10-12T19:21:35.513Z,6.00
2022-10-12T19:24:04.990Z,5.97
2022-10-12T19:26:33.104Z,5.96
2022-10-12T19:29:01.427Z,5.95
2022-10-12T19:31:37.045Z,5.91
2022-10-12T19:34:11.987Z,5.88
2022-10-12T19:36:40.671Z,5.82
2022-10-12T19:39:13.217Z,5.82
2022-10-12T19:41:41.094Z,5.76
2022-10-12T19:44:09.020Z,5.75
2022-10-12T19:46:37.004Z,5.72
2022-10-12T19:49:04.519Z,5.68
2022-10-12T19:51:33.072Z,5.71
2022-10-12T19:54:04.234Z,5.76
2022-10-12T19:56:32.686Z,5.79
2022-10-12T19:59:00.459Z,5.88
2022-10-12T20:01:35.050Z,5.83
2022-10-12T20:04:08.356Z,5.71
2022-10-12T20:06:37.675Z,5.72
2022-10-12T20:09:07.544Z,5.65
2022-10-12T20:11:38.323Z,5.60
2022-10-12T20:14:06.113Z,5.53
2022-10-12T20:16:35.247Z,5.56
2022-10-12T20:19:05.069Z,5.46
2022-10-12T20:21:32.799Z,5.46
2022-10-12T20:24:00.120Z,5.46
2022-10-12T20:26:27.834Z,5.43
2022-10-12T20:28:55.677Z,5.52
2022-10-12T20:31:24.723Z,5.50
2022-10-12T20:33:53.998Z,5.47
2022-10-12T20:36:25.790Z,5.56
2022-10-12T20:38:53.415Z,5.56
2022-10-12T20:41:21.937Z,5.61
2022-10-12T20:43:49.465Z,5.61
2022-10-12T20:46:18.754Z,5.61
2022-10-12T20:48:46.508Z,5.66
2022-10-12T20:51:27.198Z,5.68
2022-10-12T20:53:55.750Z,5.62
2022-10-12T20:56:22.896Z,5.53
2022-10-12T20:58:50.162Z,5.53
2022-10-12T21:01:17.876Z,5.59
2022-10-12T21:03:45.186Z,5.62
2022-10-12T21:06:19.025Z,5.58
2022-10-12T21:08:51.294Z,5.53
2022-10-12T21:11:18.818Z,5.48
2022-10-12T21:13:46.584Z,5.44
2022-10-12T21:16:14.821Z,5.52
2022-10-12T21:18:43.108Z,5.51
2022-10-12T21:21:14.145Z,5.48
2022-10-12T21:23:43.783Z,5.38
2022-10-12T21:26:17.670Z,5.33
2022-10-12T21:28:46.386Z,5.35
2022-10-12T21:31:14.828Z,5.29
2022-10-12T21:33:42.192Z,5.25
2022-10-12T21:36:14.931Z,5.15
2022-10-12T21:38:43.373Z,5.15
2022-10-12T21:41:12.484Z,5.11
2022-10-12T21:43:41.658Z,5.13
2022-10-12T21:46:16.353Z,5.10
2022-10-12T21:48:44.121Z,5.07
2022-10-12T21:51:12.124Z,5.10
2022-10-12T21:53:40.711Z,5.10
2022-10-12T21:56:20.853Z,5.12
2022-10-12T21:58:49.588Z,5.05
2022-10-12T22:01:21.005Z,4.97
2022-10-12T22:03:52.067Z,5.03
2022-10-12T22:06:21.959Z,5.05
2022-10-12T22:09:02.668Z,5.02
2022-10-12T22:11:32.769Z,5.08
2022-10-12T22:14:08.529Z,5.04
2022-10-12T22:16:37.190Z,5.00
2022-10-12T22:19:08.402Z,4.85
2022-10-12T22:21:36.606Z,4.80
2022-10-12T22:24:03.920Z,4.85
2022-10-12T22:26:31.430Z,4.86
2022-10-12T22:29:01.267Z,4.78
2022-10-12T22:31:28.857Z,4.89
2022-10-12T22:33:56.752Z,4.90
2022-10-12T22:36:24.196Z,4.84
2022-10-12T22:38:51.371Z,4.77
2022-10-12T22:41:23.591Z,4.85
2022-10-12T22:43:56.987Z,4.81
2022-10-12T22:46:26.671Z,4.75
2022-10-12T22:48:54.838Z,4.71
2022-10-12T22:51:36.635Z,4.65
2022-10-12T22:54:06.801Z,4.77
2022-10-12T22:56:34.503Z,4.74
2022-10-12T22:59:07.117Z,4.77
2022-10-12T23:01:36.145Z,4.76
2022-10-12T23:04:03.486Z,4.67
2022-10-12T23:06:31.263Z,4.63
2022-10-12T23:08:58.534Z,4.56
2022-10-12T23:11:28.748Z,4.58
2022-10-12T23:13:57.815Z,4.59
2022-10-12T23:16:31.432Z,4.63
2022-10-12T23:19:05.406Z,4.58
2022-10-12T23:21:34.714Z,4.53
2022-10-12T23:24:05.138Z,4.52
2022-10-12T23:26:32.536Z,4.54
2022-10-12T23:29:00.108Z,4.47
2022-10-12T23:31:29.979Z,4.48
2022-10-12T23:34:04.566Z,4.52
2022-10-12T23:36:34.665Z,4.48
2022-10-12T23:39:04.579Z,4.43
2022-10-12T23:41:31.852Z,4.32
2022-10-12T23:43:59.159Z,4.24
2022-10-12T23:46:26.727Z,4.22
2022-10-12T23:48:56.084Z,4.23
2022-10-12T23:51:23.314Z,4.25
2022-10-12T23:53:50.539Z,4.24
2022-10-12T23:56:18.035Z,4.28
2022-10-12T23:58:45.256Z,4.25
